Time;durP1;ratioP1;P1;durP2;ratioP2;P2;SDS_P1;SDS_P2;PMS_P1;PMS_P2;Temp;Humidity;BMP_temperature;BMP_pressure;BME280_temperature;BME280_humidity;BME280_pressure;Samples;Min_cycle;Max_cycle;Signal;HPM_P1;HPM_P2
2022/04/26 03:36:12;;;;;;;;;;;;;;;;;;343316;28;981;-43
2022/04/26 03:36:22;;;;;;;;;;;;;;;;;;343320;28;843;-38
2022/04/26 03:36:32;;;;;;;;;;;;;;;;;;343082;28;985;-43
2022/04/26 03:36:43;;;;;;;;;;;;;;;;;;343100;28;865;-42
2022/04/26 03:36:53;;;;;;;;;;;;;;;;;;343222;28;1044;-41
2022/04/26 03:37:08;;;;;;;;;;;;;;;;;;343372;28;856;-42
2022/04/26 03:37:19;;;;;;;;;;;;;;;;;;343426;28;835;-42
2022/04/26 03:37:31;;;;;;;;;;;;;;;;;;343161;28;942;-43
2022/04/26 03:37:44;;;;;;;;;;;;;;;;;;343086;28;902;-42
2022/04/26 03:37:55;;;;;;;;;;;;;;;;;;342933;28;937;-45
2022/04/26 03:38:05;;;;;;;;;;;;;;;;;;343250;28;929;-43
2022/04/26 03:38:18;;;;;;;;;;;;;;;;;;343039;28;957;-44
2022/04/26 03:38:28;;;;;;;;;;;;;;;;;;342938;28;1189;-44
2022/04/26 03:38:43;;;;;;;;;;;;;;;;;;343405;28;925;-44
2022/04/26 03:38:54;;;;;;;;;;;;;;;;;;343316;28;855;-42
2022/04/26 03:39:05;;;;;;;;;;;;;;;;;;343205;28;983;-42
2022/04/26 03:39:15;;;;;;;;;;;;;;;;;;343199;28;795;-42
2022/04/26 03:39:26;;;;;;;;;;;;;;;;;;343338;28;808;-45
2022/04/26 03:39:36;;;;;;;;;;;;;;;;;;343119;28;1113;-38
2022/04/26 03:39:47;;;;;;;;;;;;;;;;;;342886;28;873;-42
2022/04/26 03:39:58;;;;;;;;;;;;;;;;;;343396;28;934;-43
2022/04/26 03:40:09;;;;;;;;;;;;;;;;;;343161;28;838;-42
2022/04/26 03:40:20;;;;;;;;;;;;;;;;;;343192;28;946;-42
2022/04/26 03:40:30;;;;;;;;;;;;;;;;;;343183;28;946;-42
2022/04/26 03:40:41;;;;;;;;;;;;;;;;;;343303;28;823;-42
2022/04/26 03:40:51;;;;;;;;;;;;;;;;;;342897;28;934;-43
2022/04/26 03:41:02;;;;;;;;;;;;;;;;;;343200;28;1178;-39
2022/04/26 03:41:12;;;;;;;;;;;;;;;;;;343319;28;906;-43
2022/04/26 03:41:22;;;;;;;;;;;;;;;;;;343336;28;866;-43
2022/04/26 03:41:33;;;;;;;;;;;;;;;;;;343210;28;959;-39
2022/04/26 03:41:43;;;;;;;;;;;;;;;;;;343064;28;1911;-42
2022/04/26 03:41:54;;;;;;;;;;;;;;;;;;343415;28;898;-42
2022/04/26 03:42:04;;;;;;;;;;;;;;;;;;343210;28;1353;-42
2022/04/26 03:42:14;;;;;;;;;;;;;;;;;;343037;28;951;-42
2022/04/26 03:42:25;;;;;;;;;;;;;;;;;;343429;28;930;-42
2022/04/26 03:42:35;;;;;;;;;;;;;;;;;;343288;28;779;-39
2022/04/26 03:42:45;;;;;;;;;;;;;;;;;;342941;28;935;-43
2022/04/26 03:42:56;;;;;;;;;;;;;;;;;;343098;28;1269;-42
2022/04/26 03:43:07;;;;;;;;;;;;;;;;;;343459;28;827;-42
2022/04/26 03:43:17;;;;;;;;;;;;;;;;;;343245;28;974;-42
2022/04/26 03:43:29;;;;;;;;;;;;;;;;;;343041;28;984;-42
2022/04/26 03:43:39;;;;;;;;;;;;;;;;;;343373;28;874;-42
2022/04/26 03:43:50;;;;;;;;;;;;;;;;;;342952;28;890;-42
2022/04/26 03:44:00;;;;;;;;;;;;;;;;;;343266;28;1633;-41
2022/04/26 03:44:10;;;;;;;;;;;;;;;;;;343208;28;917;-43
2022/04/26 03:44:20;;;;;;;;;;;;;;;;;;343396;28;894;-42
2022/04/26 03:44:31;;;;;;;;;;;;;;;;;;343270;28;910;-42
2022/04/26 03:44:42;;;;;;;;;;;;;;;;;;343290;28;1049;-42
2022/04/26 03:44:52;;;;;;;;;;;;;;;;;;343125;28;1156;-42
2022/04/26 03:45:03;;;;;;;;;;;;;;;;;;343409;28;934;-42
2022/04/26 03:45:13;;;;;;;;;;;;;;;;;;343131;28;899;-40
2022/04/26 03:45:23;;;;;;;;;;;;;;;;;;342874;28;1013;-42
2022/04/26 03:45:34;;;;;;;;;;;;;;;;;;343346;28;1222;-42
2022/04/26 03:45:44;;;;;;;;;;;;;;;;;;343052;28;941;-42
2022/04/26 03:45:57;;;;;;;;;;;;;;;;;;343231;28;850;-42
2022/04/26 03:46:08;;;;;;;;;;;;;;;;;;343123;28;1042;-42
2022/04/26 03:46:18;;;;;;;;;;;;;;;;;;343390;28;913;-42
2022/04/26 03:46:28;;;;;;;;;;;;;;;;;;343151;28;591;-39
2022/04/26 03:46:39;;;;;;;;;;;;;;;;;;343273;28;991;-41
2022/04/26 03:46:49;;;;;;;;;;;;;;;;;;343034;28;827;-43
2022/04/26 03:46:59;;;;;;;;;;;;;;;;;;343385;28;931;-44
2022/04/26 03:47:09;;;;;;;;;;;;;;;;;;343246;28;1621;-42
2022/04/26 03:47:20;;;;;;;;;;;;;;;;;;343214;28;949;-42
2022/04/26 03:47:30;;;;;;;;;;;;;;;;;;343306;28;814;-43
2022/04/26 03:47:40;;;;;;;;;;;;;;;;;;343273;28;791;-38
2022/04/26 03:47:51;;;;;;;;;;;;;;;;;;343025;28;866;-42
2022/04/26 03:48:01;;;;;;;;;;;;;;;;;;343250;28;935;-42
2022/04/26 03:48:11;;;;;;;;;;;;;;;;;;343317;28;875;-41
2022/04/26 03:48:21;;;;;;;;;;;;;;;;;;343280;28;811;-42
2022/04/26 03:48:33;;;;;;;;;;;;;;;;;;343164;28;1135;-41
2022/04/26 03:48:43;;;;;;;;;;;;;;;;;;343040;28;945;-42
2022/04/26 03:48:53;;;;;;;;;;;;;;;;;;343177;28;872;-40
2022/04/26 03:49:04;;;;;;;;;;;;;;;;;;343357;28;866;-42
2022/04/26 03:49:14;;;;;;;;;;;;;;;;;;343178;28;1053;-42
2022/04/26 03:49:24;;;;;;;;;;;;;;;;;;343407;28;859;-42
2022/04/26 03:49:35;;;;;;;;;;;;;;;;;;343321;28;835;-42
2022/04/26 03:49:46;;;;;;;;;;;;;;;;;;342888;28;855;-42
2022/04/26 03:49:56;;;;;;;;;;;;;;;;;;343125;28;1112;-41
2022/04/26 03:50:06;;;;;;;;;;;;;;;;;;343397;28;812;-42
2022/04/26 03:50:17;;;;;;;;;;;;;;;;;;343236;28;980;-41
2022/04/26 03:50:27;;;;;;;;;;;;;;;;;;343209;28;965;-40
2022/04/26 03:50:38;;;;;;;;;;;;;;;;;;343424;28;862;-42
2022/04/26 03:50:48;;;;;;;;;;;;;;;;;;342920;28;902;-42
2022/04/26 03:50:58;;;;;;;;;;;;;;;;;;343297;28;922;-39
2022/04/26 03:51:09;;;;;;;;;;;;;;;;;;343154;28;937;-42
2022/04/26 03:51:19;;;;;;;;;;;;;;;;;;343363;28;929;-41
2022/04/26 03:51:30;;;;;;;;;;;;;;;;;;343211;28;866;-42
2022/04/26 03:51:41;;;;;;;;;;;;;;;;;;343246;28;1025;-42
2022/04/26 03:51:54;;;;;;;;;;;;;;;;;;342726;28;1093;-42
2022/04/26 03:52:05;;;;;;;;;;;;;;;;;;343278;28;902;-42
2022/04/26 03:52:15;;;;;;;;;;;;;;;;;;343130;28;961;-42
2022/04/26 03:52:25;;;;;;;;;;;;;;;;;;343118;28;950;-42
2022/04/26 03:52:36;;;;;;;;;;;;;;;;;;343286;28;905;-42
2022/04/26 03:52:47;;;;;;;;;;;;;;;;;;342609;28;970;-42
2022/04/26 03:52:57;;;;;;;;;;;;;;;;;;343287;28;796;-42
2022/04/26 03:53:08;;;;;;;;;;;;;;;;;;343122;28;942;-41
2022/04/26 03:53:19;;;;;;;;;;;;;;;;;;343353;28;811;-42
2022/04/26 03:53:30;;;;;;;;;;;;;;;;;;343091;28;934;-42
2022/04/26 03:53:40;;;;;;;;;;;;;;;;;;344222;28;1002;-42
2022/04/26 03:53:50;;;;;;;;;;;;;;;;;;344271;28;938;-42
2022/04/26 03:54:01;;;;;;;;;;;;;;;;;;344539;28;897;-42
2022/04/26 03:54:11;;;;;;;;;;;;;;;;;;344505;28;780;-42
2022/04/26 03:54:22;;;;;;;;;;;;;;;;;;343802;28;890;-42
2022/04/26 03:54:33;;;;;;;;;;;;;;;;;;343268;28;997;-42
2022/04/26 03:54:43;;;;;;;;;;;;;;;;;;343182;28;798;-42
2022/04/26 03:54:54;;;;;;;;;;;;;;;;;;342859;28;944;-46
2022/04/26 03:55:04;;;;;;;;;;;;;;;;;;343227;28;854;-42
2022/04/26 03:55:15;;;;;;;;;;;;;;;;;;343139;28;989;-42
2022/04/26 03:55:25;;;;;;;;;;;;;;;;;;343192;28;1027;-42
2022/04/26 03:55:35;;;;;;;;;;;;;;;;;;342910;28;999;-41
2022/04/26 03:55:46;;;;;;;;;;;;;;;;;;343074;28;846;-42
2022/04/26 03:55:56;;;;;;;;;;;;;;;;;;343164;28;898;-42
2022/04/26 03:56:06;;;;;;;;;;;;;;;;;;343187;28;874;-44
2022/04/26 03:56:17;;;;;;;;;;;;;;;;;;343071;28;958;-45
2022/04/26 03:56:27;;;;;;;;;;;;;;;;;;343052;28;985;-45
2022/04/26 03:56:37;;;;;;;;;;;;;;;;;;343126;28;842;-44
2022/04/26 03:56:48;;;;;;;;;;;;;;;;;;342732;28;988;-43
2022/04/26 03:56:58;;;;;;;;;;;;;;;;;;343301;28;1039;-44
2022/04/26 03:57:09;;;;;;;;;;;;;;;;;;343147;28;1153;-44
2022/04/26 03:57:19;;;;;;;;;;;;;;;;;;343212;28;949;-43
2022/04/26 03:57:30;;;;;;;;;;;;;;;;;;343050;28;1371;-44
2022/04/26 03:57:40;;;;;;;;;;;;;;;;;;343297;28;942;-45
2022/04/26 03:57:50;;;;;;;;;;;;;;;;;;342801;28;937;-45
2022/04/26 03:58:01;;;;;;;;;;;;;;;;;;343157;28;926;-44
2022/04/26 03:58:11;;;;;;;;;;;;;;;;;;342912;28;942;-44
2022/04/26 03:58:21;;;;;;;;;;;;;;;;;;343172;28;1218;-44
2022/04/26 03:58:33;;;;;;;;;;;;;;;;;;343098;28;989;-44
2022/04/26 03:58:43;;;;;;;;;;;;;;;;;;342854;28;926;-40
2022/04/26 03:58:53;;;;;;;;;;;;;;;;;;343117;28;843;-43
2022/04/26 03:59:04;;;;;;;;;;;;;;;;;;343336;28;914;-44
2022/04/26 03:59:14;;;;;;;;;;;;;;;;;;343135;28;882;-43
2022/04/26 03:59:24;;;;;;;;;;;;;;;;;;343266;28;939;-41
2022/04/26 03:59:35;;;;;;;;;;;;;;;;;;342946;28;1555;-41
2022/04/26 03:59:45;;;;;;;;;;;;;;;;;;343985;28;950;-38
2022/04/26 03:59:57;;;;;;;;;;;;;;;;;;343634;28;812;-42
2022/04/26 04:00:08;;;;;;;;;;;;;;;;;;343836;28;993;-41
2022/04/26 04:00:19;;;;;;;;;;;;;;;;;;344558;28;803;-43
2022/04/26 04:00:29;;;;;;;;;;;;;;;;;;344606;28;886;-41
2022/04/26 04:00:41;;;;;;;;;;;;;;;;;;343795;28;961;-41
2022/04/26 04:00:51;;;;;;;;;;;;;;;;;;343035;28;870;-41
2022/04/26 04:01:01;;;;;;;;;;;;;;;;;;343330;28;984;-42
2022/04/26 04:01:12;;;;;;;;;;;;;;;;;;344555;28;918;-41
2022/04/26 04:01:22;;;;;;;;;;;;;;;;;;344668;28;1400;-41
2022/04/26 04:01:33;;;;;;;;;;;;;;;;;;344648;28;1005;-41
2022/04/26 04:01:43;;;;;;;;;;;;;;;;;;344360;28;1914;-41
2022/04/26 04:01:53;;;;;;;;;;;;;;;;;;344465;28;949;-36
2022/04/26 04:02:04;;;;;;;;;;;;;;;;;;344537;28;862;-41
2022/04/26 04:02:14;;;;;;;;;;;;;;;;;;344650;28;1371;-41
2022/04/26 04:02:25;;;;;;;;;;;;;;;;;;344761;28;830;-41
2022/04/26 04:02:35;;;;;;;;;;;;;;;;;;344449;28;997;-41
2022/04/26 04:02:45;;;;;;;;;;;;;;;;;;344474;28;985;-42
2022/04/26 04:02:56;;;;;;;;;;;;;;;;;;344573;28;874;-39
2022/04/26 04:03:06;;;;;;;;;;;;;;;;;;344515;28;956;-42
2022/04/26 04:03:17;;;;;;;;;;;;;;;;;;344471;28;1672;-41
2022/04/26 04:03:27;;;;;;;;;;;;;;;;;;344677;28;898;-42
2022/04/26 04:03:38;;;;;;;;;;;;;;;;;;344744;28;831;-41
2022/04/26 04:03:48;;;;;;;;;;;;;;;;;;344277;28;1030;-40
2022/04/26 04:03:59;;;;;;;;;;;;;;;;;;344686;28;759;-41
2022/04/26 04:04:09;;;;;;;;;;;;;;;;;;344618;28;898;-41
2022/04/26 04:04:19;;;;;;;;;;;;;;;;;;344573;28;973;-41
2022/04/26 04:04:29;;;;;;;;;;;;;;;;;;344411;28;949;-37
2022/04/26 04:04:40;;;;;;;;;;;;;;;;;;344695;28;902;-41
2022/04/26 04:04:50;;;;;;;;;;;;;;;;;;344342;28;921;-41
2022/04/26 04:05:02;;;;;;;;;;;;;;;;;;344699;28;823;-41
2022/04/26 04:05:13;;;;;;;;;;;;;;;;;;344510;28;1152;-41
2022/04/26 04:05:23;;;;;;;;;;;;;;;;;;344790;28;898;-41
2022/04/26 04:05:33;;;;;;;;;;;;;;;;;;344291;28;1038;-41
2022/04/26 04:05:44;;;;;;;;;;;;;;;;;;342925;28;970;-40
2022/04/26 04:05:54;;;;;;;;;;;;;;;;;;343147;28;902;-41
2022/04/26 04:06:05;;;;;;;;;;;;;;;;;;343359;28;800;-37
2022/04/26 04:06:15;;;;;;;;;;;;;;;;;;343233;28;890;-42
2022/04/26 04:06:26;;;;;;;;;;;;;;;;;;343122;28;1077;-41
2022/04/26 04:06:36;;;;;;;;;;;;;;;;;;343304;28;918;-41
2022/04/26 04:06:46;;;;;;;;;;;;;;;;;;343124;28;977;-41
2022/04/26 04:06:57;;;;;;;;;;;;;;;;;;343054;28;812;-42
2022/04/26 04:07:07;;;;;;;;;;;;;;;;;;343059;28;1035;-41
2022/04/26 04:07:18;;;;;;;;;;;;;;;;;;343333;28;1066;-41
2022/04/26 04:07:28;;;;;;;;;;;;;;;;;;343163;28;1047;-41
2022/04/26 04:07:38;;;;;;;;;;;;;;;;;;342918;28;862;-39
2022/04/26 04:07:50;;;;;;;;;;;;;;;;;;343047;28;850;-41
2022/04/26 04:08:01;;;;;;;;;;;;;;;;;;343435;28;839;-41
2022/04/26 04:08:11;;;;;;;;;;;;;;;;;;343218;28;886;-41
2022/04/26 04:08:21;;;;;;;;;;;;;;;;;;343213;28;1627;-42
2022/04/26 04:08:32;;;;;;;;;;;;;;;;;;343282;28;874;-41
2022/04/26 04:08:42;;;;;;;;;;;;;;;;;;343106;28;1718;-42
2022/04/26 04:08:52;;;;;;;;;;;;;;;;;;343006;28;951;-39
2022/04/26 04:09:03;;;;;;;;;;;;;;;;;;343260;28;1095;-41
2022/04/26 04:09:13;;;;;;;;;;;;;;;;;;343267;28;1021;-38
2022/04/26 04:09:23;;;;;;;;;;;;;;;;;;343284;28;879;-41
2022/04/26 04:09:34;;;;;;;;;;;;;;;;;;343199;28;1625;-40
2022/04/26 04:09:44;;;;;;;;;;;;;;;;;;343088;28;790;-42
2022/04/26 04:09:56;;;;;;;;;;;;;;;;;;343168;28;846;-37
2022/04/26 04:10:06;;;;;;;;;;;;;;;;;;343268;28;957;-41
2022/04/26 04:10:16;;;;;;;;;;;;;;;;;;343107;28;1152;-41
2022/04/26 04:10:27;;;;;;;;;;;;;;;;;;343437;28;1232;-41
2022/04/26 04:10:37;;;;;;;;;;;;;;;;;;344246;28;843;-38
2022/04/26 04:10:47;;;;;;;;;;;;;;;;;;344334;28;1103;-42
2022/04/26 04:10:58;;;;;;;;;;;;;;;;;;344583;28;870;-41
2022/04/26 04:11:09;;;;;;;;;;;;;;;;;;344523;28;882;-41
2022/04/26 04:11:20;;;;;;;;;;;;;;;;;;344642;28;1117;-39
2022/04/26 04:11:30;;;;;;;;;;;;;;;;;;344495;28;961;-41
2022/04/26 04:11:40;;;;;;;;;;;;;;;;;;343709;28;854;-42
2022/04/26 04:11:52;;;;;;;;;;;;;;;;;;343072;28;918;-41
2022/04/26 04:12:02;;;;;;;;;;;;;;;;;;343087;28;854;-41
2022/04/26 04:12:13;;;;;;;;;;;;;;;;;;343174;28;905;-41
2022/04/26 04:12:23;;;;;;;;;;;;;;;;;;343341;28;977;-41
2022/04/26 04:12:34;;;;;;;;;;;;;;;;;;343239;28;889;-41
2022/04/26 04:12:44;;;;;;;;;;;;;;;;;;343024;28;934;-39
2022/04/26 04:12:54;;;;;;;;;;;;;;;;;;343224;28;933;-41
2022/04/26 04:13:05;;;;;;;;;;;;;;;;;;343294;28;819;-41
2022/04/26 04:13:16;;;;;;;;;;;;;;;;;;343247;28;934;-41
2022/04/26 04:13:26;;;;;;;;;;;;;;;;;;343186;28;973;-41
2022/04/26 04:13:36;;;;;;;;;;;;;;;;;;343270;28;870;-39
2022/04/26 04:13:47;;;;;;;;;;;;;;;;;;343143;28;874;-41
2022/04/26 04:13:58;;;;;;;;;;;;;;;;;;343027;28;1120;-40
2022/04/26 04:14:08;;;;;;;;;;;;;;;;;;343189;28;1202;-41
2022/04/26 04:14:18;;;;;;;;;;;;;;;;;;343442;28;882;-41
2022/04/26 04:14:28;;;;;;;;;;;;;;;;;;343208;28;1277;-39
2022/04/26 04:14:39;;;;;;;;;;;;;;;;;;343213;28;1032;-42
2022/04/26 04:14:49;;;;;;;;;;;;;;;;;;343120;28;938;-41
2022/04/26 04:14:59;;;;;;;;;;;;;;;;;;342960;28;831;-41
2022/04/26 04:15:10;;;;;;;;;;;;;;;;;;343273;28;890;-42
2022/04/26 04:15:20;;;;;;;;;;;;;;;;;;343146;28;941;-41
2022/04/26 04:15:31;;;;;;;;;;;;;;;;;;343314;28;783;-41
2022/04/26 04:15:41;;;;;;;;;;;;;;;;;;343377;28;823;-41
2022/04/26 04:15:52;;;;;;;;;;;;;;;;;;343035;28;1015;-38
2022/04/26 04:16:04;;;;;;;;;;;;;;;;;;343337;28;827;-41
2022/04/26 04:16:15;;;;;;;;;;;;;;;;;;343204;28;811;-40
2022/04/26 04:16:25;;;;;;;;;;;;;;;;;;343253;28;957;-41
2022/04/26 04:16:35;;;;;;;;;;;;;;;;;;343200;28;1037;-41
2022/04/26 04:16:47;;;;;;;;;;;;;;;;;;343160;28;885;-41
2022/04/26 04:16:57;;;;;;;;;;;;;;;;;;343107;28;803;-41
2022/04/26 04:17:08;;;;;;;;;;;;;;;;;;343294;28;962;-40
2022/04/26 04:17:18;;;;;;;;;;;;;;;;;;343251;28;1216;-41
2022/04/26 04:17:28;;;;;;;;;;;;;;;;;;343352;28;780;-39
2022/04/26 04:17:39;;;;;;;;;;;;;;;;;;343275;28;890;-40
2022/04/26 04:17:49;;;;;;;;;;;;;;;;;;342788;28;1038;-40
2022/04/26 04:17:59;;;;;;;;;;;;;;;;;;343271;28;937;-40
2022/04/26 04:19:21;;;;;;;;;;;;;;;;;;342857;28;1114;-39
2022/04/26 04:19:33;;;;;;;;;;;;;;;;;;343152;28;800;-41
2022/04/26 04:19:43;;;;;;;;;;;;;;;;;;343033;28;1113;-40
2022/04/26 04:19:53;;;;;;;;;;;;;;;;;;343289;28;895;-41
2022/04/26 04:20:04;;;;;;;;;;;;;;;;;;343262;28;941;-39
2022/04/26 04:20:15;;;;;;;;;;;;;;;;;;343158;28;973;-41
2022/04/26 04:20:25;;;;;;;;;;;;;;;;;;343165;28;998;-45
2022/04/26 04:20:36;;;;;;;;;;;;;;;;;;343382;28;843;-40
2022/04/26 04:20:47;;;;;;;;;;;;;;;;;;343100;28;815;-41
2022/04/26 04:20:57;;;;;;;;;;;;;;;;;;343207;28;898;-38
2022/04/26 04:21:08;;;;;;;;;;;;;;;;;;343225;28;915;-40
2022/04/26 04:21:19;;;;;;;;;;;;;;;;;;343375;28;858;-40
2022/04/26 04:21:29;;;;;;;;;;;;;;;;;;343305;28;989;-40
2022/04/26 04:21:39;;;;;;;;;;;;;;;;;;343085;28;1069;-40
2022/04/26 04:21:50;;;;;;;;;;;;;;;;;;343057;28;1983;-40
2022/04/26 04:22:01;;;;;;;;;;;;;;;;;;343246;28;800;-39
2022/04/26 04:22:14;;;;;;;;;;;;;;;;;;343206;28;938;-40
2022/04/26 04:22:24;;;;;;;;;;;;;;;;;;343013;28;903;-40
2022/04/26 04:22:34;;;;;;;;;;;;;;;;;;343309;28;942;-40
2022/04/26 04:22:45;;;;;;;;;;;;;;;;;;343080;28;989;-41
2022/04/26 04:22:56;;;;;;;;;;;;;;;;;;343047;28;1593;-40
2022/04/26 04:23:07;;;;;;;;;;;;;;;;;;343345;28;780;-41
2022/04/26 04:23:17;;;;;;;;;;;;;;;;;;343135;28;843;-40
2022/04/26 04:23:28;;;;;;;;;;;;;;;;;;343111;28;812;-40
2022/04/26 04:23:40;;;;;;;;;;;;;;;;;;343126;28;1005;-40
2022/04/26 04:23:50;;;;;;;;;;;;;;;;;;342934;28;942;-40
2022/04/26 04:24:00;;;;;;;;;;;;;;;;;;343102;28;866;-40
2022/04/26 04:24:11;;;;;;;;;;;;;;;;;;343006;28;877;-40
2022/04/26 04:24:23;;;;;;;;;;;;;;;;;;343226;28;780;-41
2022/04/26 04:24:33;;;;;;;;;;;;;;;;;;343121;28;1018;-36
2022/04/26 04:24:43;;;;;;;;;;;;;;;;;;342715;28;1143;-40
2022/04/26 04:24:54;;;;;;;;;;;;;;;;;;343058;28;1061;-40
2022/04/26 04:25:04;;;;;;;;;;;;;;;;;;343196;28;898;-40
2022/04/26 04:25:15;;;;;;;;;;;;;;;;;;343158;28;937;-40
2022/04/26 04:25:25;;;;;;;;;;;;;;;;;;342988;28;910;-41
2022/04/26 04:25:36;;;;;;;;;;;;;;;;;;343154;28;822;-40
2022/04/26 04:25:46;;;;;;;;;;;;;;;;;;342984;28;905;-41
2022/04/26 04:25:56;;;;;;;;;;;;;;;;;;343187;28;847;-41
2022/04/26 04:26:07;;;;;;;;;;;;;;;;;;343244;28;1127;-38
2022/04/26 04:26:18;;;;;;;;;;;;;;;;;;343516;28;854;-40
2022/04/26 04:26:28;;;;;;;;;;;;;;;;;;343338;28;941;-40
2022/04/26 04:26:39;;;;;;;;;;;;;;;;;;343506;28;854;-40
2022/04/26 04:26:49;;;;;;;;;;;;;;;;;;342969;28;1091;-41
2022/04/26 04:27:00;;;;;;;;;;;;;;;;;;343515;28;897;-41
2022/04/26 04:27:10;;;;;;;;;;;;;;;;;;343339;28;874;-41
2022/04/26 04:27:20;;;;;;;;;;;;;;;;;;343412;28;977;-40
2022/04/26 04:27:31;;;;;;;;;;;;;;;;;;343340;28;890;-41
2022/04/26 04:27:42;;;;;;;;;;;;;;;;;;343514;28;846;-38
2022/04/26 04:27:52;;;;;;;;;;;;;;;;;;343196;28;1166;-40
2022/04/26 04:28:02;;;;;;;;;;;;;;;;;;343331;28;1156;-40
2022/04/26 04:28:13;;;;;;;;;;;;;;;;;;343349;28;953;-40
2022/04/26 04:28:24;;;;;;;;;;;;;;;;;;343410;28;961;-41
2022/04/26 04:28:34;;;;;;;;;;;;;;;;;;343416;28;866;-40
2022/04/26 04:28:45;;;;;;;;;;;;;;;;;;343054;28;1031;-40
2022/04/26 04:28:56;;;;;;;;;;;;;;;;;;343517;28;835;-40
2022/04/26 04:29:07;;;;;;;;;;;;;;;;;;343361;28;1135;-39
2022/04/26 04:29:18;;;;;;;;;;;;;;;;;;343438;28;1099;-40
2022/04/26 04:29:28;;;;;;;;;;;;;;;;;;343425;28;897;-41
2022/04/26 04:29:38;;;;;;;;;;;;;;;;;;343460;28;945;-40
2022/04/26 04:29:51;;;;;;;;;;;;;;;;;;343069;28;917;-40
2022/04/26 04:30:02;;;;;;;;;;;;;;;;;;343473;28;918;-41
2022/04/26 04:30:13;;;;;;;;;;;;;;;;;;343527;28;976;-40
2022/04/26 04:30:23;;;;;;;;;;;;;;;;;;343476;28;1016;-40
2022/04/26 04:30:34;;;;;;;;;;;;;;;;;;343368;28;978;-39
2022/04/26 04:30:44;;;;;;;;;;;;;;;;;;343362;28;934;-40
2022/04/26 04:30:54;;;;;;;;;;;;;;;;;;343500;28;964;-40
2022/04/26 04:31:05;;;;;;;;;;;;;;;;;;343433;28;818;-41
2022/04/26 04:31:15;;;;;;;;;;;;;;;;;;343394;28;977;-40
2022/04/26 04:31:25;;;;;;;;;;;;;;;;;;343674;28;1632;-40
2022/04/26 04:31:36;;;;;;;;;;;;;;;;;;343407;28;826;-41
2022/04/26 04:31:46;;;;;;;;;;;;;;;;;;343276;28;999;-39
2022/04/26 04:31:56;;;;;;;;;;;;;;;;;;343506;28;870;-39
2022/04/26 04:32:07;;;;;;;;;;;;;;;;;;343480;28;834;-40
2022/04/26 04:32:18;;;;;;;;;;;;;;;;;;343537;28;807;-40
2022/04/26 04:32:29;;;;;;;;;;;;;;;;;;343404;28;945;-41
2022/04/26 04:32:40;;;;;;;;;;;;;;;;;;343688;28;826;-40
2022/04/26 04:32:50;;;;;;;;;;;;;;;;;;343260;28;902;-40
2022/04/26 04:33:00;;;;;;;;;;;;;;;;;;343387;28;1122;-40
2022/04/26 04:33:11;;;;;;;;;;;;;;;;;;343265;28;974;-40
2022/04/26 04:33:21;;;;;;;;;;;;;;;;;;343389;28;1008;-41
2022/04/26 04:33:32;;;;;;;;;;;;;;;;;;343375;28;830;-40
2022/04/26 04:33:44;;;;;;;;;;;;;;;;;;343179;28;1025;-40
2022/04/26 04:33:54;;;;;;;;;;;;;;;;;;343439;28;1002;-40
2022/04/26 04:34:05;;;;;;;;;;;;;;;;;;343426;28;933;-43
2022/04/26 04:34:15;;;;;;;;;;;;;;;;;;343354;28;934;-41
2022/04/26 04:34:25;;;;;;;;;;;;;;;;;;343252;28;1047;-41
2022/04/26 04:34:36;;;;;;;;;;;;;;;;;;343570;28;854;-40
2022/04/26 04:34:47;;;;;;;;;;;;;;;;;;343068;28;794;-40
2022/04/26 04:34:57;;;;;;;;;;;;;;;;;;343354;28;1032;-38
2022/04/26 04:35:08;;;;;;;;;;;;;;;;;;343468;28;870;-40
2022/04/26 04:35:18;;;;;;;;;;;;;;;;;;343461;28;895;-40
2022/04/26 04:35:29;;;;;;;;;;;;;;;;;;343429;28;866;-40
2022/04/26 04:35:39;;;;;;;;;;;;;;;;;;343514;28;984;-40
2022/04/26 04:35:49;;;;;;;;;;;;;;;;;;343219;28;795;-41
2022/04/26 04:36:00;;;;;;;;;;;;;;;;;;343587;28;858;-40
2022/04/26 04:36:10;;;;;;;;;;;;;;;;;;343094;28;1216;-40
2022/04/26 04:36:20;;;;;;;;;;;;;;;;;;343175;28;899;-38
2022/04/26 04:36:31;;;;;;;;;;;;;;;;;;343450;28;835;-40
2022/04/26 04:36:41;;;;;;;;;;;;;;;;;;343413;28;933;-40
2022/04/26 04:36:52;;;;;;;;;;;;;;;;;;343066;28;1156;-39
2022/04/26 04:37:02;;;;;;;;;;;;;;;;;;343414;28;1067;-40
2022/04/26 04:37:13;;;;;;;;;;;;;;;;;;343197;28;1264;-40
2022/04/26 04:37:23;;;;;;;;;;;;;;;;;;343375;28;929;-41
2022/04/26 04:37:33;;;;;;;;;;;;;;;;;;343224;28;931;-40
2022/04/26 04:37:43;;;;;;;;;;;;;;;;;;343277;28;910;-40
2022/04/26 04:37:54;;;;;;;;;;;;;;;;;;343291;28;819;-39
2022/04/26 04:38:04;;;;;;;;;;;;;;;;;;343439;28;1152;-40
2022/04/26 04:38:14;;;;;;;;;;;;;;;;;;343394;28;966;-40
2022/04/26 04:38:26;;;;;;;;;;;;;;;;;;343643;28;922;-40
2022/04/26 04:38:36;;;;;;;;;;;;;;;;;;343455;28;803;-41
2022/04/26 04:38:47;;;;;;;;;;;;;;;;;;343190;28;1066;-40
2022/04/26 04:38:57;;;;;;;;;;;;;;;;;;343469;28;992;-40
2022/04/26 04:39:07;;;;;;;;;;;;;;;;;;343380;28;941;-41
2022/04/26 04:39:23;;;;;;;;;;;;;;;;;;343549;28;774;-38
2022/04/26 04:39:33;;;;;;;;;;;;;;;;;;343320;28;866;-40
2022/04/26 04:39:44;;;;;;;;;;;;;;;;;;343332;28;826;-40
2022/04/26 04:39:55;;;;;;;;;;;;;;;;;;343358;28;819;-41
2022/04/26 04:40:06;;;;;;;;;;;;;;;;;;343147;28;1010;-40
2022/04/26 04:40:16;;;;;;;;;;;;;;;;;;343324;28;976;-40
2022/04/26 04:40:27;;;;;;;;;;;;;;;;;;343395;28;930;-41
2022/04/26 04:40:37;;;;;;;;;;;;;;;;;;343461;28;851;-40
2022/04/26 04:40:47;;;;;;;;;;;;;;;;;;343033;28;1078;-41
2022/04/26 04:40:58;;;;;;;;;;;;;;;;;;343441;28;894;-41
2022/04/26 04:41:08;;;;;;;;;;;;;;;;;;343304;28;1048;-40
2022/04/26 04:41:19;;;;;;;;;;;;;;;;;;343186;28;939;-41
2022/04/26 04:41:35;;;;;;;;;;;;;;;;;;343403;28;901;-40
2022/04/26 04:41:46;;;;;;;;;;;;;;;;;;343204;28;2022;-46
2022/04/26 04:41:59;;;;;;;;;;;;;;;;;;343195;28;984;-41
2022/04/26 04:42:09;;;;;;;;;;;;;;;;;;343368;28;834;-41
2022/04/26 04:42:21;;;;;;;;;;;;;;;;;;343527;28;976;-38
2022/04/26 04:42:31;;;;;;;;;;;;;;;;;;343511;28;842;-40
2022/04/26 04:42:41;;;;;;;;;;;;;;;;;;343344;28;889;-41
2022/04/26 04:42:52;;;;;;;;;;;;;;;;;;343275;28;938;-40
2022/04/26 04:43:02;;;;;;;;;;;;;;;;;;343570;28;913;-40
2022/04/26 04:43:13;;;;;;;;;;;;;;;;;;343229;28;1064;-41
2022/04/26 04:43:24;;;;;;;;;;;;;;;;;;343610;28;918;-40
2022/04/26 04:43:35;;;;;;;;;;;;;;;;;;343427;28;539;-40
2022/04/26 04:43:45;;;;;;;;;;;;;;;;;;343342;28;957;-39
2022/04/26 04:43:55;;;;;;;;;;;;;;;;;;343333;28;958;-40
2022/04/26 04:44:07;;;;;;;;;;;;;;;;;;343573;28;1020;-40
2022/04/26 04:44:18;;;;;;;;;;;;;;;;;;343571;28;882;-40
2022/04/26 04:44:28;;;;;;;;;;;;;;;;;;343259;28;1086;-38
2022/04/26 04:44:39;;;;;;;;;;;;;;;;;;343339;28;1045;-39
2022/04/26 04:44:49;;;;;;;;;;;;;;;;;;343374;28;914;-40
2022/04/26 04:44:59;;;;;;;;;;;;;;;;;;343568;28;819;-40
2022/04/26 04:45:10;;;;;;;;;;;;;;;;;;343234;28;1099;-40
2022/04/26 04:45:20;;;;;;;;;;;;;;;;;;343494;28;854;-40
2022/04/26 04:45:30;;;;;;;;;;;;;;;;;;343489;28;842;-40
2022/04/26 04:45:41;;;;;;;;;;;;;;;;;;343554;28;901;-37
2022/04/26 04:45:51;;;;;;;;;;;;;;;;;;343138;28;1105;-40
2022/04/26 04:46:02;;;;;;;;;;;;;;;;;;343611;28;882;-40
2022/04/26 04:46:13;;;;;;;;;;;;;;;;;;343484;28;784;-40
2022/04/26 04:46:23;;;;;;;;;;;;;;;;;;343547;28;870;-41
2022/04/26 04:46:33;;;;;;;;;;;;;;;;;;343434;28;923;-40
2022/04/26 04:46:44;;;;;;;;;;;;;;;;;;343373;28;1178;-40
2022/04/26 04:47:00;;;;;;;;;;;;;;;;;;343391;28;914;-40
2022/04/26 04:47:11;;;;;;;;;;;;;;;;;;343350;28;1090;-40
2022/04/26 04:47:21;;;;;;;;;;;;;;;;;;343552;28;890;-41
2022/04/26 04:47:31;;;;;;;;;;;;;;;;;;343415;28;992;-37
2022/04/26 04:47:42;;;;;;;;;;;;;;;;;;343448;28;1081;-40
2022/04/26 04:47:52;;;;;;;;;;;;;;;;;;343273;28;874;-41
2022/04/26 04:48:05;;;;;;;;;;;;;;;;;;343636;28;831;-40
2022/04/26 04:48:16;;;;;;;;;;;;;;;;;;343408;28;1096;-41
2022/04/26 04:48:26;;;;;;;;;;;;;;;;;;343424;28;1206;-44
2022/04/26 04:48:36;;;;;;;;;;;;;;;;;;343550;28;918;-40
2022/04/26 04:48:47;;;;;;;;;;;;;;;;;;343314;28;890;-41
2022/04/26 04:48:57;;;;;;;;;;;;;;;;;;343344;28;1112;-40
2022/04/26 04:49:07;;;;;;;;;;;;;;;;;;343438;28;830;-41
2022/04/26 04:49:18;;;;;;;;;;;;;;;;;;343611;28;878;-40
2022/04/26 04:49:29;;;;;;;;;;;;;;;;;;343380;28;806;-41
2022/04/26 04:49:39;;;;;;;;;;;;;;;;;;343477;28;915;-40
2022/04/26 04:49:49;;;;;;;;;;;;;;;;;;343200;28;890;-40
2022/04/26 04:50:00;;;;;;;;;;;;;;;;;;343525;28;926;-40
2022/04/26 04:50:10;;;;;;;;;;;;;;;;;;343407;28;981;-40
2022/04/26 04:50:20;;;;;;;;;;;;;;;;;;343459;28;949;-40
2022/04/26 04:50:32;;;;;;;;;;;;;;;;;;343328;28;799;-40
2022/04/26 04:50:42;;;;;;;;;;;;;;;;;;343391;28;1061;-40
2022/04/26 04:50:53;;;;;;;;;;;;;;;;;;343036;28;942;-41
2022/04/26 04:51:03;;;;;;;;;;;;;;;;;;343620;28;910;-41
2022/04/26 04:51:13;;;;;;;;;;;;;;;;;;343451;28;905;-40
2022/04/26 04:51:24;;;;;;;;;;;;;;;;;;343514;28;1013;-40
2022/04/26 04:51:35;;;;;;;;;;;;;;;;;;343361;28;1288;-40
2022/04/26 04:51:45;;;;;;;;;;;;;;;;;;343426;28;783;-40
2022/04/26 04:51:55;;;;;;;;;;;;;;;;;;343266;28;842;-41
2022/04/26 04:52:06;;;;;;;;;;;;;;;;;;343434;28;819;-41
2022/04/26 04:52:16;;;;;;;;;;;;;;;;;;343307;28;1180;-39
2022/04/26 04:52:26;;;;;;;;;;;;;;;;;;343578;28;940;-42
2022/04/26 04:52:37;;;;;;;;;;;;;;;;;;343365;28;1007;-40
2022/04/26 04:52:47;;;;;;;;;;;;;;;;;;343112;28;957;-41
2022/04/26 04:52:58;;;;;;;;;;;;;;;;;;343642;28;823;-39
2022/04/26 04:53:08;;;;;;;;;;;;;;;;;;343397;28;795;-40
2022/04/26 04:53:19;;;;;;;;;;;;;;;;;;343505;28;933;-41